This is the latest recevied weather packets stored in our database for station/object SQ9NFI-4. If no packets are shown the sender has not sent any weather packets the latest 10 day(s).
| Time | Temp. | Humidity | Pressure | Rain* | Wind** | Luminosity | Snow |
|---|---|---|---|---|---|---|---|
| 1777214624 | 12.78° C | 31% | 1022 hPa | 0 mm | - | 210 W/m² | - |
| 1777214324 | 12.78° C | 30% | 1022 hPa | 0 mm | - | 337 W/m² | - |
| 1777214024 | 11.67° C | 30% | 1021.7 hPa | 0 mm | - | 76 W/m² | - |
| 1777213724 | 12.22° C | 30% | 1021.7 hPa | 0 mm | - | 94 W/m² | - |
| 1777213424 | 13.33° C | 28% | 1021.7 hPa | 0 mm | - | 361 W/m² | - |
| 1777213124 | 12.78° C | 28% | 1021.7 hPa | 0 mm | - | 377 W/m² | - |
| 1777212825 | 13.33° C | 29% | 1021.7 hPa | 0 mm | - | 407 W/m² | - |
| 1777212525 | 13.33° C | 30% | 1021 hPa | 0 mm | - | 438 W/m² | - |
| 1777212224 | 13.33° C | 29% | 1021 hPa | 0 mm | - | 499 W/m² | - |
| 1777211924 | 12.22° C | 30% | 1021 hPa | 0 mm | - | 509 W/m² | - |
| 1777211624 | 11.67° C | 30% | 1021 hPa | 0 mm | - | 475 W/m² | - |
| 1777211324 | 13.33° C | 27% | 1021 hPa | 0 mm | - | 496 W/m² | - |
| 1777211024 | 13.33° C | 28% | 1021 hPa | 0 mm | - | 491 W/m² | - |
| 1777210724 | 13.33° C | 26% | 1021 hPa | 0 mm | - | 485 W/m² | - |
| 1777210424 | 13.33° C | 28% | 1021 hPa | 0 mm | - | 515 W/m² | - |
| 1777210124 | 13.33° C | 28% | 1021 hPa | 0 mm | - | 583 W/m² | - |
| 1777209824 | 13.33° C | 27% | 1021 hPa | 0 mm | - | 574 W/m² | - |
| 1777209524 | 13.89° C | 30% | 1021 hPa | 0 mm | - | 555 W/m² | - |
| 1777209225 | 13.33° C | 31% | 1021 hPa | 0 mm | - | 570 W/m² | - |
| 1777208924 | 12.22° C | 29% | 1021 hPa | 0 mm | - | 471 W/m² | - |
| 1777208624 | 13.33° C | 32% | 1021 hPa | 0 mm | - | 566 W/m² | - |
| 1777208324 | 12.78° C | 29% | 1021 hPa | 0 mm | - | 479 W/m² | - |
| 1777208024 | 12.22° C | 30% | 1021 hPa | 0 mm | - | 586 W/m² | - |
| 1777207724 | 12.78° C | 31% | 1021 hPa | 0 mm | - | 600 W/m² | - |
| 1777207424 | 12.78° C | 32% | 1021 hPa | 0 mm | - | 614 W/m² | - |
* Rain latest hour (hover to see other rain measurements)
** Current wind speed in m/s (hover to see current wind gust speed)